Time;durP1;ratioP1;P1;durP2;ratioP2;P2;SDS_P1;SDS_P2;PMS_P1;PMS_P2;Temp;Humidity;BMP_temperature;BMP_pressure;BME280_temperature;BME280_humidity;BME280_pressure;Samples;Min_cycle;Max_cycle;Signal;HPM_P1;HPM_P2
2022/11/08 00:01:35;;;;;;;;;;;20.10;68.90;;;;;;4993692;28;19926;-61
2022/11/08 00:04:02;;;;;;;;;;;20.10;69.00;;;;;;4994477;28;19926;-61
2022/11/08 00:14:39;;;;;;;;;;;20.10;69.00;;;;;;4994439;28;19925;-61
2022/11/08 00:17:05;;;;;;;;;;;20.10;69.00;;;;;;4994230;28;20226;-61
2022/11/08 00:19:30;;;;;;;;;;;20.00;68.90;;;;;;4994282;28;19929;-61
2022/11/08 00:21:56;;;;;;;;;;;20.10;68.90;;;;;;4994010;28;19940;-61
2022/11/08 00:24:21;;;;;;;;;;;20.10;68.90;;;;;;4993151;28;20468;-61
2022/11/08 00:26:47;;;;;;;;;;;20.10;68.90;;;;;;4994619;28;19930;-61
2022/11/08 00:29:13;;;;;;;;;;;20.10;68.90;;;;;;4993979;28;19926;-61
2022/11/08 00:31:38;;;;;;;;;;;20.00;68.90;;;;;;4993714;28;20372;-61
2022/11/08 00:34:04;;;;;;;;;;;20.10;68.90;;;;;;4994361;28;19937;-61
2022/11/08 00:36:29;;;;;;;;;;;20.00;68.90;;;;;;4993603;28;19929;-61
2022/11/08 00:38:55;;;;;;;;;;;20.00;68.90;;;;;;4993630;28;19933;-61
2022/11/08 00:41:20;;;;;;;;;;;20.00;68.90;;;;;;4993998;28;20380;-61
2022/11/08 00:43:46;;;;;;;;;;;20.00;68.90;;;;;;4993455;28;19932;-61
2022/11/08 00:46:11;;;;;;;;;;;20.00;68.80;;;;;;4993878;28;19926;-61
2022/11/08 00:48:37;;;;;;;;;;;20.00;68.80;;;;;;4994001;28;19929;-61
2022/11/08 00:51:02;;;;;;;;;;;20.00;68.80;;;;;;4992996;28;20368;-61
2022/11/08 00:53:28;;;;;;;;;;;20.00;68.80;;;;;;4993718;28;20547;-61
2022/11/08 00:55:57;;;;;;;;;;;20.00;68.90;;;;;;4993521;28;19925;-63
2022/11/08 00:58:22;;;;;;;;;;;20.00;68.80;;;;;;4993191;28;19933;-61
2022/11/08 01:00:48;;;;;;;;;;;20.00;68.90;;;;;;4993582;28;19926;-61
2022/11/08 01:03:20;;;;;;;;;;;20.00;68.90;;;;;;4993374;28;20635;-61
2022/11/08 01:05:46;;;;;;;;;;;20.00;68.90;;;;;;4993101;28;19930;-61
2022/11/08 01:08:11;;;;;;;;;;;20.00;68.80;;;;;;4993074;28;19984;-61
2022/11/08 01:10:39;;;;;;;;;;;20.00;68.90;;;;;;4993455;28;20286;-61
2022/11/08 01:13:05;;;;;;;;;;;19.90;68.80;;;;;;4993326;28;19997;-61
2022/11/08 01:15:34;;;;;;;;;;;19.90;68.80;;;;;;4993270;28;20009;-61
2022/11/08 01:17:59;;;;;;;;;;;19.90;68.80;;;;;;4993096;28;20270;-61
2022/11/08 01:20:25;;;;;;;;;;;19.90;68.80;;;;;;4991217;28;19929;-61
2022/11/08 01:22:50;;;;;;;;;;;19.90;68.80;;;;;;4992182;28;19934;-61
2022/11/08 01:25:16;;;;;;;;;;;19.90;68.80;;;;;;4992865;28;19926;-61
2022/11/08 01:27:42;;;;;;;;;;;19.90;68.80;;;;;;4992669;28;20020;-61
2022/11/08 01:30:08;;;;;;;;;;;19.90;68.80;;;;;;4993571;28;19930;-61
2022/11/08 01:32:34;;;;;;;;;;;19.90;68.80;;;;;;4993221;28;19921;-62
2022/11/08 01:34:59;;;;;;;;;;;19.90;68.80;;;;;;4991284;28;19933;-61
2022/11/08 01:37:25;;;;;;;;;;;19.90;68.80;;;;;;4993116;28;20389;-61
2022/11/08 01:39:50;;;;;;;;;;;19.90;68.80;;;;;;4992351;28;19929;-61
2022/11/08 01:42:16;;;;;;;;;;;19.90;68.80;;;;;;4993260;28;20064;-61
2022/11/08 01:45:00;;;;;;;;;;;19.90;68.80;;;;;;4993294;28;19929;-62
2022/11/08 01:47:26;;;;;;;;;;;19.90;68.80;;;;;;4992569;28;19926;-61
2022/11/08 01:49:52;;;;;;;;;;;19.90;68.80;;;;;;4992867;28;20311;-61
2022/11/08 01:52:31;;;;;;;;;;;19.90;68.80;;;;;;4992811;28;20020;-61
2022/11/08 01:55:16;;;;;;;;;;;19.80;68.80;;;;;;5007772;28;19930;-61
2022/11/08 01:57:50;;;;;;;;;;;19.80;68.80;;;;;;5008503;28;19930;-61
2022/11/08 02:00:15;;;;;;;;;;;19.80;68.80;;;;;;4992312;28;19925;-61
2022/11/08 02:02:41;;;;;;;;;;;19.80;68.80;;;;;;4992460;28;19952;-61
2022/11/08 02:05:23;;;;;;;;;;;19.80;68.80;;;;;;4993173;28;19961;-61
2022/11/08 02:07:53;;;;;;;;;;;19.80;68.80;;;;;;4992569;28;19973;-61
2022/11/08 02:10:18;;;;;;;;;;;19.80;68.80;;;;;;4992228;28;19926;-61
2022/11/08 02:12:44;;;;;;;;;;;19.80;68.70;;;;;;4992920;28;19926;-61
2022/11/08 02:15:09;;;;;;;;;;;19.80;68.80;;;;;;4992181;28;19930;-61
2022/11/08 02:17:35;;;;;;;;;;;19.80;68.80;;;;;;5008371;28;19926;-61
2022/11/08 02:20:00;;;;;;;;;;;19.80;68.80;;;;;;4992961;28;20376;-64
2022/11/08 02:22:27;;;;;;;;;;;19.80;68.70;;;;;;4991913;28;19926;-61
2022/11/08 02:24:53;;;;;;;;;;;19.80;68.70;;;;;;5007956;28;19926;-61
2022/11/08 02:27:19;;;;;;;;;;;19.80;68.80;;;;;;4992572;28;19933;-61
2022/11/08 02:29:45;;;;;;;;;;;19.80;68.70;;;;;;4992375;28;19932;-61
2022/11/08 02:32:11;;;;;;;;;;;19.80;68.80;;;;;;4991277;28;19988;-61
2022/11/08 02:34:40;;;;;;;;;;;19.80;68.80;;;;;;4992676;28;19933;-61
2022/11/08 02:37:06;;;;;;;;;;;19.80;68.70;;;;;;4992440;28;19933;-61
2022/11/08 02:39:33;;;;;;;;;;;19.80;68.70;;;;;;5007774;28;19926;-62
2022/11/08 02:41:58;;;;;;;;;;;19.80;68.70;;;;;;4992662;28;19929;-61
2022/11/08 02:44:24;;;;;;;;;;;19.80;68.70;;;;;;4991744;28;19972;-61
2022/11/08 02:46:49;;;;;;;;;;;19.70;68.60;;;;;;4995130;28;19933;-61
2022/11/08 02:49:15;;;;;;;;;;;19.80;68.70;;;;;;4995304;28;19926;-61
2022/11/08 02:51:40;;;;;;;;;;;19.70;68.60;;;;;;4995906;28;19930;-61
2022/11/08 02:54:06;;;;;;;;;;;19.70;68.60;;;;;;4995813;28;20377;-61
2022/11/08 02:56:31;;;;;;;;;;;19.70;68.60;;;;;;4995284;28;19925;-62
2022/11/08 02:58:57;;;;;;;;;;;19.70;68.70;;;;;;5011022;28;19930;-61
2022/11/08 03:01:22;;;;;;;;;;;19.70;68.70;;;;;;4995880;28;19921;-61
2022/11/08 03:03:48;;;;;;;;;;;19.70;68.60;;;;;;4994218;28;20519;-62
2022/11/08 03:06:13;;;;;;;;;;;19.70;68.60;;;;;;4994635;28;19973;-62
2022/11/08 03:08:39;;;;;;;;;;;19.70;68.60;;;;;;4993455;28;19973;-61
2022/11/08 03:11:04;;;;;;;;;;;19.70;68.60;;;;;;4995531;28;19968;-61
2022/11/08 03:13:30;;;;;;;;;;;19.70;69.30;;;;;;4994954;28;19926;-61
2022/11/08 03:15:55;;;;;;;;;;;19.70;68.60;;;;;;4995521;28;19926;-61
2022/11/08 03:18:21;;;;;;;;;;;19.70;68.60;;;;;;4994929;28;19926;-61
2022/11/08 03:20:46;;;;;;;;;;;19.70;68.60;;;;;;4995543;28;20013;-61
2022/11/08 03:23:12;;;;;;;;;;;19.70;68.60;;;;;;4995323;28;19988;-61
2022/11/08 03:25:37;;;;;;;;;;;19.70;68.70;;;;;;4994755;28;20595;-61
2022/11/08 03:28:03;;;;;;;;;;;19.70;68.60;;;;;;4995517;28;19926;-61
2022/11/08 03:30:29;;;;;;;;;;;19.70;68.70;;;;;;4994818;28;19934;-61
2022/11/08 03:32:54;;;;;;;;;;;19.70;68.60;;;;;;4995035;28;19987;-61
2022/11/08 03:35:20;;;;;;;;;;;19.70;68.60;;;;;;4995077;28;19941;-61
2022/11/08 03:37:52;;;;;;;;;;;19.70;68.60;;;;;;4995135;28;19981;-62
2022/11/08 03:40:17;;;;;;;;;;;19.60;68.60;;;;;;4994702;28;19926;-61
2022/11/08 03:42:43;;;;;;;;;;;19.60;68.60;;;;;;4995501;28;19933;-61
2022/11/08 03:45:10;;;;;;;;;;;19.60;68.60;;;;;;4994837;28;19926;-61
2022/11/08 03:47:42;;;;;;;;;;;19.60;68.60;;;;;;4994494;28;19944;-61
2022/11/08 03:50:08;;;;;;;;;;;19.60;68.60;;;;;;4995107;28;19933;-61
2022/11/08 03:52:44;;;;;;;;;;;19.60;68.60;;;;;;4994983;28;19921;-61
2022/11/08 03:55:09;;;;;;;;;;;19.60;68.60;;;;;;4994371;28;19933;-61
2022/11/08 03:57:35;;;;;;;;;;;19.60;68.60;;;;;;4993994;28;19922;-61
2022/11/08 04:00:01;;;;;;;;;;;19.60;68.60;;;;;;4994866;28;20008;-61
2022/11/08 04:02:26;;;;;;;;;;;19.60;68.60;;;;;;4994310;28;20107;-61
2022/11/08 04:04:52;;;;;;;;;;;19.60;68.60;;;;;;4994739;28;19928;-61
2022/11/08 04:07:17;;;;;;;;;;;19.60;68.60;;;;;;4993902;28;19936;-61
2022/11/08 04:09:43;;;;;;;;;;;19.60;68.60;;;;;;4993925;28;20430;-61
2022/11/08 04:23:04;;;;;;;;;;;19.60;68.50;;;;;;4993960;28;19926;-61
2022/11/08 04:25:30;;;;;;;;;;;19.70;68.50;;;;;;4994162;28;19932;-61
2022/11/08 04:27:55;;;;;;;;;;;19.70;68.50;;;;;;4994048;28;20388;-60
2022/11/08 04:30:20;;;;;;;;;;;19.70;68.40;;;;;;4993356;28;19971;-61
2022/11/08 04:32:46;;;;;;;;;;;19.70;68.40;;;;;;4994401;28;19926;-61
2022/11/08 04:35:11;;;;;;;;;;;19.70;68.40;;;;;;4993719;28;19925;-60
2022/11/08 04:37:37;;;;;;;;;;;19.70;68.40;;;;;;4993747;28;19930;-61
2022/11/08 04:40:03;;;;;;;;;;;19.70;68.30;;;;;;4994288;28;19925;-61
2022/11/08 04:42:28;;;;;;;;;;;19.70;68.30;;;;;;4993659;28;19929;-60
2022/11/08 04:44:53;;;;;;;;;;;19.70;68.30;;;;;;4993540;28;19929;-60
2022/11/08 04:47:19;;;;;;;;;;;19.70;68.30;;;;;;4993921;28;19949;-61
2022/11/08 04:49:44;;;;;;;;;;;19.80;68.30;;;;;;4993290;28;19932;-61
2022/11/08 04:52:10;;;;;;;;;;;19.80;68.30;;;;;;4993547;28;19949;-61
2022/11/08 04:54:35;;;;;;;;;;;19.80;68.30;;;;;;4993670;28;19925;-60
2022/11/08 04:57:01;;;;;;;;;;;19.80;68.30;;;;;;4993255;28;19982;-61
2022/11/08 04:59:26;;;;;;;;;;;19.80;68.30;;;;;;4993246;28;19937;-60
2022/11/08 05:01:52;;;;;;;;;;;19.80;68.20;;;;;;4985618;28;19981;-61
2022/11/08 05:04:17;;;;;;;;;;;19.80;68.30;;;;;;4989661;28;20016;-61
2022/11/08 05:06:43;;;;;;;;;;;19.80;68.20;;;;;;4992793;28;19925;-60
2022/11/08 05:09:09;;;;;;;;;;;19.80;68.20;;;;;;4992374;28;20381;-60
2022/11/08 05:11:35;;;;;;;;;;;19.80;68.20;;;;;;4992968;28;19932;-60
2022/11/08 05:14:00;;;;;;;;;;;19.80;68.20;;;;;;4993481;28;20016;-60
2022/11/08 05:16:27;;;;;;;;;;;19.90;68.20;;;;;;4992896;28;19925;-61
2022/11/08 05:18:52;;;;;;;;;;;19.90;68.20;;;;;;4993137;28;19929;-60
2022/11/08 05:24:03;;;;;;;;;;;19.90;68.20;;;;;;4993415;28;19926;-60
2022/11/08 05:26:28;;;;;;;;;;;19.90;68.20;;;;;;4992375;28;19936;-60
2022/11/08 05:28:54;;;;;;;;;;;19.90;68.10;;;;;;4993476;28;19926;-60
2022/11/08 05:31:19;;;;;;;;;;;19.90;68.10;;;;;;4993033;28;19925;-60
2022/11/08 05:33:45;;;;;;;;;;;19.90;68.20;;;;;;4992711;28;19929;-60
2022/11/08 05:36:11;;;;;;;;;;;19.90;68.10;;;;;;4992585;28;20012;-60
2022/11/08 05:38:37;;;;;;;;;;;19.90;68.10;;;;;;4993023;28;19933;-60
2022/11/08 05:41:09;;;;;;;;;;;19.90;68.10;;;;;;4992785;28;20332;-60
2022/11/08 05:43:34;;;;;;;;;;;19.90;68.10;;;;;;4993142;28;20400;-60
2022/11/08 05:46:00;;;;;;;;;;;19.90;68.10;;;;;;4992629;28;19926;-60
2022/11/08 05:48:25;;;;;;;;;;;19.90;68.00;;;;;;4993092;28;19972;-60
2022/11/08 05:50:51;;;;;;;;;;;19.90;68.00;;;;;;4993135;28;19926;-60
2022/11/08 05:53:16;;;;;;;;;;;19.90;68.10;;;;;;4992524;28;20349;-60
2022/11/08 05:55:42;;;;;;;;;;;19.90;68.00;;;;;;4993050;28;19968;-60
2022/11/08 05:58:07;;;;;;;;;;;19.90;68.00;;;;;;4992947;28;19934;-60
2022/11/08 06:00:33;;;;;;;;;;;19.90;68.00;;;;;;4991071;28;19930;-60
2022/11/08 06:03:00;;;;;;;;;;;19.90;68.00;;;;;;4992944;28;19933;-60
2022/11/08 06:05:25;;;;;;;;;;;19.90;68.00;;;;;;4992633;28;19926;-60
2022/11/08 06:07:54;;;;;;;;;;;19.90;68.00;;;;;;4992213;28;19926;-60
2022/11/08 06:10:19;;;;;;;;;;;19.90;68.00;;;;;;4992906;28;20008;-60
2022/11/08 06:12:45;;;;;;;;;;;19.90;68.00;;;;;;4992866;28;20354;-60
2022/11/08 06:15:10;;;;;;;;;;;19.90;68.00;;;;;;4992393;28;19925;-60
2022/11/08 06:17:36;;;;;;;;;;;19.90;68.00;;;;;;4992966;28;19933;-60
2022/11/08 06:20:03;;;;;;;;;;;19.90;68.00;;;;;;4992860;28;20009;-60
2022/11/08 06:22:29;;;;;;;;;;;19.90;68.00;;;;;;4995838;28;19933;-60
2022/11/08 06:24:55;;;;;;;;;;;19.90;68.00;;;;;;4996551;28;20455;-60
2022/11/08 06:27:20;;;;;;;;;;;19.90;68.00;;;;;;4996272;28;20009;-60
2022/11/08 06:29:46;;;;;;;;;;;19.90;68.00;;;;;;4996102;28;19925;-60
2022/11/08 06:32:11;;;;;;;;;;;19.90;68.00;;;;;;4996188;28;20044;-59
2022/11/08 06:34:37;;;;;;;;;;;19.90;68.60;;;;;;4996300;28;19925;-60
2022/11/08 06:37:03;;;;;;;;;;;19.90;67.90;;;;;;4995942;28;19925;-62
2022/11/08 06:39:29;;;;;;;;;;;19.90;67.90;;;;;;4996330;28;19996;-60
2022/11/08 06:41:54;;;;;;;;;;;19.90;68.00;;;;;;4996156;28;20028;-60
2022/11/08 06:44:20;;;;;;;;;;;19.90;67.90;;;;;;4995805;28;19933;-60
2022/11/08 06:46:45;;;;;;;;;;;19.90;67.90;;;;;;4996132;28;19992;-60
2022/11/08 06:49:11;;;;;;;;;;;19.90;67.90;;;;;;4995816;28;20292;-59
2022/11/08 06:51:36;;;;;;;;;;;19.90;67.90;;;;;;4994315;28;19926;-60
2022/11/08 06:54:02;;;;;;;;;;;19.90;67.90;;;;;;4996065;28;19922;-60
2022/11/08 06:56:28;;;;;;;;;;;19.90;67.90;;;;;;4995467;28;20412;-60
2022/11/08 06:58:53;;;;;;;;;;;19.90;67.90;;;;;;4996373;28;20413;-60
2022/11/08 07:01:19;;;;;;;;;;;19.90;67.90;;;;;;4995819;28;19922;-60
2022/11/08 07:03:44;;;;;;;;;;;19.90;67.80;;;;;;4995081;28;19925;-60
2022/11/08 07:06:10;;;;;;;;;;;19.90;67.90;;;;;;4995686;28;20328;-60
2022/11/08 07:08:35;;;;;;;;;;;20.00;67.90;;;;;;4995460;28;19941;-60
2022/11/08 07:11:01;;;;;;;;;;;19.90;68.60;;;;;;4995252;28;20364;-60
2022/11/08 07:13:26;;;;;;;;;;;20.00;68.00;;;;;;4995555;28;19925;-60
2022/11/08 07:15:52;;;;;;;;;;;20.00;68.00;;;;;;4995541;28;20004;-60
2022/11/08 07:18:18;;;;;;;;;;;20.00;68.00;;;;;;4993645;28;19937;-60
2022/11/08 07:20:43;;;;;;;;;;;20.00;68.20;;;;;;4995606;28;19922;-60
2022/11/08 07:23:09;;;;;;;;;;;20.00;68.30;;;;;;4995286;28;19948;-60
2022/11/08 07:25:34;;;;;;;;;;;20.00;68.30;;;;;;4995305;28;19926;-60
2022/11/08 07:28:01;;;;;;;;;;;20.10;68.40;;;;;;4995465;28;20035;-60
2022/11/08 07:30:26;;;;;;;;;;;20.10;68.40;;;;;;4995038;28;20397;-61
2022/11/08 07:32:52;;;;;;;;;;;20.10;68.40;;;;;;4994973;28;19964;-61
2022/11/08 07:35:18;;;;;;;;;;;20.10;68.40;;;;;;4993656;28;19930;-60
2022/11/08 07:37:43;;;;;;;;;;;20.10;68.40;;;;;;4995002;28;20020;-60
2022/11/08 07:40:09;;;;;;;;;;;20.10;68.40;;;;;;4994714;28;19968;-60
2022/11/08 07:42:35;;;;;;;;;;;20.10;68.50;;;;;;4995429;28;20360;-60
2022/11/08 07:45:00;;;;;;;;;;;20.10;68.50;;;;;;4995032;28;19980;-60
2022/11/08 07:47:26;;;;;;;;;;;20.20;68.60;;;;;;4994605;28;19971;-60
2022/11/08 07:49:51;;;;;;;;;;;20.20;68.60;;;;;;4994895;28;19932;-61
2022/11/08 07:52:17;;;;;;;;;;;20.20;68.60;;;;;;4994442;28;20296;-60
2022/11/08 07:54:43;;;;;;;;;;;20.10;68.40;;;;;;4994673;28;19925;-60
2022/11/08 07:57:08;;;;;;;;;;;20.20;68.40;;;;;;4994756;28;20005;-60
2022/11/08 07:59:34;;;;;;;;;;;20.20;68.40;;;;;;4995065;28;19926;-60
2022/11/08 08:01:59;;;;;;;;;;;20.20;68.50;;;;;;4994597;28;20009;-60
2022/11/08 08:04:27;;;;;;;;;;;20.30;68.60;;;;;;4992982;28;20344;-59
2022/11/08 08:06:52;;;;;;;;;;;20.30;68.50;;;;;;4994371;28;19969;-60
2022/11/08 08:09:18;;;;;;;;;;;20.30;68.60;;;;;;4994326;28;20416;-60
2022/11/08 08:11:43;;;;;;;;;;;20.30;68.60;;;;;;4994606;28;19933;-60
2022/11/08 08:14:09;;;;;;;;;;;20.20;68.50;;;;;;4993944;28;20016;-61
2022/11/08 08:16:35;;;;;;;;;;;20.30;68.50;;;;;;5012290;28;20031;-61
2022/11/08 08:19:01;;;;;;;;;;;20.30;68.60;;;;;;5013669;28;19933;-60
2022/11/08 08:21:26;;;;;;;;;;;20.30;68.50;;;;;;5013365;28;19925;-61
2022/11/08 08:23:52;;;;;;;;;;;20.30;68.40;;;;;;5014305;28;20030;-61
2022/11/08 08:26:17;;;;;;;;;;;20.30;68.40;;;;;;5012167;28;19929;-61
2022/11/08 08:28:43;;;;;;;;;;;20.30;68.40;;;;;;5013401;28;19999;-61
2022/11/08 08:31:08;;;;;;;;;;;20.30;68.30;;;;;;5013667;28;19992;-61
2022/11/08 08:33:34;;;;;;;;;;;20.30;68.20;;;;;;5013683;28;20404;-61
2022/11/08 08:36:00;;;;;;;;;;;20.40;68.30;;;;;;5012988;28;19937;-61
2022/11/08 08:38:26;;;;;;;;;;;20.40;68.20;;;;;;5004468;28;19933;-61
2022/11/08 08:40:51;;;;;;;;;;;20.40;68.20;;;;;;4993680;28;19932;-60
2022/11/08 08:43:17;;;;;;;;;;;20.40;68.20;;;;;;4989380;28;19981;-61
2022/11/08 08:45:42;;;;;;;;;;;20.40;68.10;;;;;;4993862;28;19933;-61
2022/11/08 08:48:08;;;;;;;;;;;20.40;68.20;;;;;;4993082;28;19938;-61
2022/11/08 08:50:33;;;;;;;;;;;20.40;68.20;;;;;;4992663;28;20359;-61
2022/11/08 08:53:00;;;;;;;;;;;20.40;68.10;;;;;;4993495;28;19933;-61
2022/11/08 08:55:25;;;;;;;;;;;20.40;68.10;;;;;;4993068;28;19926;-60
2022/11/08 08:57:51;;;;;;;;;;;20.40;68.10;;;;;;4992908;28;20344;-60
2022/11/08 09:00:16;;;;;;;;;;;20.40;68.10;;;;;;4993316;28;20328;-61
2022/11/08 09:02:42;;;;;;;;;;;20.40;68.00;;;;;;4981146;28;19933;-60
2022/11/08 09:05:08;;;;;;;;;;;20.40;68.10;;;;;;4973377;28;19933;-60
2022/11/08 09:07:33;;;;;;;;;;;20.40;68.30;;;;;;4977886;28;19934;-60
2022/11/08 09:09:59;;;;;;;;;;;20.40;68.30;;;;;;4973534;28;20012;-59
2022/11/08 09:12:25;;;;;;;;;;;20.40;68.30;;;;;;4980762;28;19933;-59
2022/11/08 09:14:51;;;;;;;;;;;20.40;68.40;;;;;;4974358;28;19954;-60
2022/11/08 09:17:16;;;;;;;;;;;20.40;68.30;;;;;;4984459;28;19932;-60
2022/11/08 09:19:45;;;;;;;;;;;20.50;68.40;;;;;;4992993;28;19988;-60
2022/11/08 09:22:10;;;;;;;;;;;20.50;68.40;;;;;;4991771;28;19943;-60
2022/11/08 09:24:36;;;;;;;;;;;20.50;68.40;;;;;;4992280;28;19969;-60
2022/11/08 09:27:02;;;;;;;;;;;20.50;68.40;;;;;;4991649;28;19926;-60
2022/11/08 09:29:32;;;;;;;;;;;20.50;68.40;;;;;;4992909;28;19925;-60
2022/11/08 09:31:57;;;;;;;;;;;20.50;68.20;;;;;;5007823;28;19926;-61
2022/11/08 09:34:23;;;;;;;;;;;20.50;68.10;;;;;;4992615;28;19928;-61
2022/11/08 09:36:48;;;;;;;;;;;20.50;68.20;;;;;;4992862;28;20341;-61
2022/11/08 09:39:15;;;;;;;;;;;20.50;68.10;;;;;;4992703;28;19925;-61
2022/11/08 09:41:55;;;;;;;;;;;20.50;68.20;;;;;;4993548;28;19921;-61
2022/11/08 09:44:29;;;;;;;;;;;20.50;68.20;;;;;;4992839;28;19985;-61
2022/11/08 09:46:56;;;;;;;;;;;20.50;68.20;;;;;;4992523;28;19929;-61
2022/11/08 09:49:26;;;;;;;;;;;20.50;68.30;;;;;;4992809;28;19926;-62
2022/11/08 09:51:52;;;;;;;;;;;20.50;68.30;;;;;;4993139;28;19933;-61
2022/11/08 09:54:22;;;;;;;;;;;20.50;68.30;;;;;;4992716;28;19925;-60
2022/11/08 09:56:48;;;;;;;;;;;20.50;68.30;;;;;;5010787;28;19968;-61
2022/11/08 09:59:24;;;;;;;;;;;20.50;68.40;;;;;;4995954;28;20106;-61
2022/11/08 10:01:50;;;;;;;;;;;20.50;68.50;;;;;;4997164;28;20009;-61
2022/11/08 10:04:20;;;;;;;;;;;20.50;68.40;;;;;;4996563;28;20061;-61
2022/11/08 10:07:06;;;;;;;;;;;20.50;68.50;;;;;;4996474;28;20384;-61
2022/11/08 10:09:50;;;;;;;;;;;20.50;68.50;;;;;;4995317;28;20499;-61
2022/11/08 10:12:24;;;;;;;;;;;20.50;68.40;;;;;;4996451;28;19973;-61
2022/11/08 10:14:59;;;;;;;;;;;20.50;68.40;;;;;;4994766;28;20381;-61
2022/11/08 10:17:31;;;;;;;;;;;20.50;68.40;;;;;;4996288;28;19930;-61
2022/11/08 10:19:59;;;;;;;;;;;20.50;68.40;;;;;;4995197;28;19925;-61
2022/11/08 10:22:51;;;;;;;;;;;20.50;68.40;;;;;;4994631;28;20320;-61
2022/11/08 10:25:31;;;;;;;;;;;20.50;68.40;;;;;;4995899;28;19930;-61
2022/11/08 10:27:58;;;;;;;;;;;20.50;68.40;;;;;;4994938;28;19968;-61
2022/11/08 10:30:29;;;;;;;;;;;20.50;68.50;;;;;;4996202;28;19925;-62
2022/11/08 10:32:54;;;;;;;;;;;20.50;68.50;;;;;;4994269;28;19972;-62
2022/11/08 10:35:26;;;;;;;;;;;20.50;68.50;;;;;;4995769;28;19977;-62
2022/11/08 10:37:52;;;;;;;;;;;20.50;68.50;;;;;;4996074;28;20428;-62
2022/11/08 10:40:33;;;;;;;;;;;20.40;68.50;;;;;;5011196;28;19926;-62
2022/11/08 10:43:00;;;;;;;;;;;20.50;68.60;;;;;;4995676;28;19933;-62
2022/11/08 10:45:25;;;;;;;;;;;20.40;68.60;;;;;;5011093;28;19930;-62
2022/11/08 10:47:51;;;;;;;;;;;20.40;68.70;;;;;;4995875;28;19925;-62
2022/11/08 10:50:17;;;;;;;;;;;20.40;68.60;;;;;;5010459;28;19926;-62
2022/11/08 10:52:59;;;;;;;;;;;20.40;68.60;;;;;;4991079;28;19930;-61
2022/11/08 10:55:25;;;;;;;;;;;20.40;68.60;;;;;;4994922;28;19925;-61
2022/11/08 10:57:50;;;;;;;;;;;20.40;68.60;;;;;;4993875;28;20334;-61
2022/11/08 11:00:22;;;;;;;;;;;20.40;68.60;;;;;;4995190;28;20004;-61
2022/11/08 11:02:54;;;;;;;;;;;20.40;68.60;;;;;;4994772;28;19932;-61
2022/11/08 11:05:21;;;;;;;;;;;20.40;68.60;;;;;;4995012;28;19925;-61
2022/11/08 11:07:59;;;;;;;;;;;20.40;68.60;;;;;;5009586;28;19926;-61
2022/11/08 11:10:24;;;;;;;;;;;20.40;68.80;;;;;;4995217;28;19926;-62
2022/11/08 11:13:10;;;;;;;;;;;20.40;68.80;;;;;;4995584;28;19988;-61
2022/11/08 11:15:37;;;;;;;;;;;20.40;68.90;;;;;;4995224;28;19926;-61
2022/11/08 11:18:03;;;;;;;;;;;20.40;68.80;;;;;;4995110;28;20259;-62
2022/11/08 11:20:30;;;;;;;;;;;20.40;68.90;;;;;;4994547;28;20349;-61
2022/11/08 11:22:55;;;;;;;;;;;20.40;68.90;;;;;;4994400;28;19925;-62
2022/11/08 11:25:21;;;;;;;;;;;20.30;69.00;;;;;;4992161;28;20294;-61
2022/11/08 11:27:53;;;;;;;;;;;20.30;69.00;;;;;;4993558;28;20386;-60
2022/11/08 11:30:29;;;;;;;;;;;20.30;68.90;;;;;;4987168;28;19926;-60
2022/11/08 11:32:55;;;;;;;;;;;20.30;68.90;;;;;;4994339;28;19925;-60
2022/11/08 11:35:20;;;;;;;;;;;20.40;68.90;;;;;;4993653;28;19933;-60
2022/11/08 11:37:47;;;;;;;;;;;20.30;68.90;;;;;;4994188;28;20443;-60
2022/11/08 11:40:14;;;;;;;;;;;20.30;69.00;;;;;;4993194;28;19933;-61
2022/11/08 11:42:50;;;;;;;;;;;20.40;69.10;;;;;;4995032;28;19933;-61
2022/11/08 11:45:17;;;;;;;;;;;20.40;69.00;;;;;;4993392;28;19987;-60
2022/11/08 11:47:46;;;;;;;;;;;20.30;68.90;;;;;;4993853;28;19991;-61
2022/11/08 11:50:30;;;;;;;;;;;20.40;68.90;;;;;;4994623;28;19926;-60
2022/11/08 11:52:56;;;;;;;;;;;20.30;68.80;;;;;;4994812;28;19995;-62
2022/11/08 11:55:24;;;;;;;;;;;20.30;68.90;;;;;;4994177;28;20351;-60
2022/11/08 11:58:01;;;;;;;;;;;20.30;68.70;;;;;;4985879;28;19934;-60
2022/11/08 12:00:26;;;;;;;;;;;20.30;68.80;;;;;;4972847;28;19926;-60
2022/11/08 12:02:51;;;;;;;;;;;20.30;68.80;;;;;;4991444;28;19933;-60
2022/11/08 12:05:36;;;;;;;;;;;20.30;68.90;;;;;;4992683;28;19925;-59
2022/11/08 12:08:17;;;;;;;;;;;20.30;68.90;;;;;;5000051;28;20035;-59
2022/11/08 12:11:06;;;;;;;;;;;20.30;68.90;;;;;;5001011;28;19930;-59
2022/11/08 12:13:41;;;;;;;;;;;20.30;69.60;;;;;;5001150;28;19926;-59
2022/11/08 12:16:15;;;;;;;;;;;20.30;69.00;;;;;;5001885;28;19965;-59
2022/11/08 12:18:52;;;;;;;;;;;20.30;69.10;;;;;;5014424;28;19926;-60
2022/11/08 12:21:30;;;;;;;;;;;20.30;69.10;;;;;;5002023;28;19926;-60
2022/11/08 12:23:59;;;;;;;;;;;20.30;69.10;;;;;;5002239;28;20297;-59
2022/11/08 12:26:30;;;;;;;;;;;20.30;69.10;;;;;;5019083;28;20404;-60
2022/11/08 12:29:02;;;;;;;;;;;20.30;69.20;;;;;;5004252;28;20008;-59
2022/11/08 12:31:44;;;;;;;;;;;20.30;69.20;;;;;;5015483;28;19980;-60
2022/11/08 12:34:35;;;;;;;;;;;20.30;69.20;;;;;;5005018;28;20337;-60
2022/11/08 12:37:20;;;;;;;;;;;20.30;69.20;;;;;;5011529;28;20000;-60
2022/11/08 12:39:47;;;;;;;;;;;20.30;69.20;;;;;;5013385;28;19929;-60
2022/11/08 12:42:27;;;;;;;;;;;20.30;69.30;;;;;;5013085;28;19972;-60
2022/11/08 12:45:02;;;;;;;;;;;20.30;69.30;;;;;;5013397;28;19926;-60
2022/11/08 12:47:48;;;;;;;;;;;20.30;69.10;;;;;;5013208;28;19926;-60
2022/11/08 12:50:20;;;;;;;;;;;20.30;69.10;;;;;;5027908;28;19983;-60
2022/11/08 12:53:06;;;;;;;;;;;20.30;69.20;;;;;;5013557;28;19925;-59
2022/11/08 12:55:35;;;;;;;;;;;20.30;69.10;;;;;;5011955;28;20361;-60
2022/11/08 12:58:01;;;;;;;;;;;20.30;69.10;;;;;;5013758;28;19925;-60
2022/11/08 13:00:27;;;;;;;;;;;20.30;69.00;;;;;;5013080;28;19933;-60
2022/11/08 13:03:12;;;;;;;;;;;20.30;69.10;;;;;;5028307;28;19926;-61
2022/11/08 13:05:40;;;;;;;;;;;20.30;69.20;;;;;;5011703;28;19979;-60
2022/11/08 13:08:13;;;;;;;;;;;20.30;69.10;;;;;;5013040;28;19926;-60
2022/11/08 13:10:42;;;;;;;;;;;20.30;69.20;;;;;;5028119;28;19929;-60
2022/11/08 13:13:20;;;;;;;;;;;20.30;69.10;;;;;;5012872;28;19952;-61
2022/11/08 13:16:04;;;;;;;;;;;20.40;69.30;;;;;;5013136;28;19925;-59
2022/11/08 13:18:33;;;;;;;;;;;20.40;69.20;;;;;;5012516;28;20056;-59
2022/11/08 13:20:58;;;;;;;;;;;20.40;69.30;;;;;;5028296;28;19925;-61
2022/11/08 13:23:26;;;;;;;;;;;20.40;69.20;;;;;;5027569;28;20446;-62
2022/11/08 13:25:51;;;;;;;;;;;20.40;69.10;;;;;;5010911;28;19925;-59
2022/11/08 13:28:36;;;;;;;;;;;20.40;69.10;;;;;;4991398;28;19932;-60
2022/11/08 13:31:10;;;;;;;;;;;20.50;69.10;;;;;;4991762;28;19926;-60
2022/11/08 13:33:35;;;;;;;;;;;20.50;69.10;;;;;;4992224;28;19929;-60
2022/11/08 13:36:10;;;;;;;;;;;20.40;69.10;;;;;;4991864;28;19926;-60
2022/11/08 13:38:39;;;;;;;;;;;20.50;69.20;;;;;;4991582;28;19929;-60
2022/11/08 13:41:04;;;;;;;;;;;20.50;69.10;;;;;;4993362;28;20004;-60
2022/11/08 13:43:30;;;;;;;;;;;20.40;69.10;;;;;;4992617;28;20334;-59
2022/11/08 13:46:19;;;;;;;;;;;20.50;69.20;;;;;;4995328;28;19933;-60
2022/11/08 13:48:56;;;;;;;;;;;20.50;69.10;;;;;;5002139;28;20024;-60
2022/11/08 13:51:28;;;;;;;;;;;20.50;69.30;;;;;;4998983;28;19984;-60
2022/11/08 13:54:03;;;;;;;;;;;20.40;69.10;;;;;;5001753;28;19922;-60
2022/11/08 13:56:45;;;;;;;;;;;20.50;69.20;;;;;;4992452;28;20120;-60
2022/11/08 13:59:29;;;;;;;;;;;20.40;69.10;;;;;;5001302;28;19968;-60
2022/11/08 14:01:57;;;;;;;;;;;20.50;69.20;;;;;;5002777;28;19988;-61
2022/11/08 14:04:23;;;;;;;;;;;20.50;69.30;;;;;;5000602;28;20130;-60
2022/11/08 14:06:49;;;;;;;;;;;20.40;69.30;;;;;;5001523;28;19937;-60
2022/11/08 14:09:34;;;;;;;;;;;20.50;69.80;;;;;;5002452;28;19926;-61
2022/11/08 14:12:03;;;;;;;;;;;20.40;69.20;;;;;;5004418;28;19929;-60
2022/11/08 14:14:34;;;;;;;;;;;20.40;69.30;;;;;;5011450;28;19929;-61
2022/11/08 14:17:07;;;;;;;;;;;20.40;69.20;;;;;;5012356;28;19936;-61
2022/11/08 14:19:34;;;;;;;;;;;20.40;69.30;;;;;;5011551;28;20008;-61
2022/11/08 14:22:00;;;;;;;;;;;20.40;69.30;;;;;;5012819;28;19940;-61
2022/11/08 14:24:27;;;;;;;;;;;20.40;69.30;;;;;;5027072;28;19926;-61
2022/11/08 14:26:52;;;;;;;;;;;20.40;69.30;;;;;;5027141;28;20422;-61
2022/11/08 14:29:18;;;;;;;;;;;20.40;69.30;;;;;;5011827;28;19925;-60
2022/11/08 14:31:44;;;;;;;;;;;20.40;69.30;;;;;;4998726;28;19932;-61
2022/11/08 14:34:28;;;;;;;;;;;20.40;69.30;;;;;;4991706;28;19925;-60
2022/11/08 14:36:53;;;;;;;;;;;20.40;69.30;;;;;;4992590;28;19925;-61
2022/11/08 14:39:19;;;;;;;;;;;20.40;69.10;;;;;;4992757;28;19953;-61
2022/11/08 14:41:45;;;;;;;;;;;20.40;69.10;;;;;;4993069;28;19952;-61
2022/11/08 14:44:11;;;;;;;;;;;20.40;69.10;;;;;;4995674;28;19930;-61